Time;durP1;ratioP1;P1;durP2;ratioP2;P2;SDS_P1;SDS_P2;PMS_P1;PMS_P2;Temp;Humidity;BMP_temperature;BMP_pressure;BME280_temperature;BME280_humidity;BME280_pressure;Samples;Min_cycle;Max_cycle;Signal;HPM_P1;HPM_P2
2021/11/16 00:00:34;;;;;;;60.92;18.67;;;;;;;4.95;47.84;102656.41;5000781;28;20521;-64
2021/11/16 00:02:59;;;;;;;47.50;17.83;;;;;;;4.86;48.57;102645.91;4984583;28;20046;-64
2021/11/16 00:05:25;;;;;;;49.35;15.93;;;;;;;4.89;48.63;102645.09;4985691;28;20093;-64
2021/11/16 00:07:52;;;;;;;52.90;17.70;;;;;;;4.65;48.85;102641.28;4983365;28;20113;-65
2021/11/16 00:10:18;;;;;;;48.45;15.82;;;;;;;4.69;48.64;102637.91;4985598;28;20030;-65
2021/11/16 00:12:43;;;;;;;50.50;16.45;;;;;;;4.73;48.64;102631.91;4984175;28;20041;-66
2021/11/16 00:15:09;;;;;;;47.58;16.00;;;;;;;4.73;48.70;102628.47;4984905;28;20093;-65
2021/11/16 00:17:34;;;;;;;55.53;17.55;;;;;;;4.79;48.54;102624.22;4985305;28;20046;-65
2021/11/16 00:20:01;;;;;;;50.33;16.90;;;;;;;4.74;48.44;102615.50;4984612;28;20042;-65
2021/11/16 00:22:29;;;;;;;51.33;17.27;;;;;;;4.77;48.35;102620.75;4982079;28;20046;-69
2021/11/16 00:27:31;;;;;;;57.50;19.13;;;;;;;4.69;49.09;102618.91;4984419;28;20351;-65
2021/11/16 00:29:56;;;;;;;45.20;16.05;;;;;;;4.86;48.87;102608.75;4985437;28;20483;-64
2021/11/16 00:32:22;;;;;;;49.67;19.20;;;;;;;4.73;49.02;102616.38;4984312;28;20136;-65
2021/11/16 00:34:49;;;;;;;54.33;18.70;;;;;;;4.62;49.13;102615.38;4984960;28;20100;-65
2021/11/16 00:37:16;;;;;;;54.72;18.00;;;;;;;4.09;50.67;102623.25;4998710;28;20108;-65
2021/11/16 00:39:43;;;;;;;57.30;19.13;;;;;;;4.50;49.78;102620.38;4982963;28;20039;-65
2021/11/16 00:42:09;;;;;;;56.45;18.40;;;;;;;4.48;49.72;102617.78;4983254;28;20499;-64
2021/11/16 00:44:34;;;;;;;48.03;16.15;;;;;;;4.49;49.68;102622.09;4984335;28;20326;-64
2021/11/16 00:47:00;;;;;;;48.65;17.05;;;;;;;4.07;50.12;102620.63;4984656;28;20113;-66
2021/11/16 00:49:26;;;;;;;49.70;17.25;;;;;;;3.65;50.77;102621.72;4983087;28;20089;-63
2021/11/16 00:51:52;;;;;;;47.08;17.80;;;;;;;3.91;50.52;102622.13;4958872;28;20476;-64
2021/11/16 00:54:18;;;;;;;60.03;17.73;;;;;;;3.90;50.64;102617.81;4997978;28;20065;-68
2021/11/16 00:56:43;;;;;;;47.63;14.98;;;;;;;4.17;50.33;102607.00;4983367;28;20042;-64
2021/11/16 00:59:09;;;;;;;51.40;18.70;;;;;;;4.02;50.46;102617.97;4999291;28;20537;-64
2021/11/16 01:01:34;;;;;;;53.17;16.13;;;;;;;4.43;49.27;102628.06;4983437;28;20041;-64
2021/11/16 01:04:00;;;;;;;44.58;15.00;;;;;;;4.39;49.22;102623.69;4984078;28;20053;-64
2021/11/16 01:06:26;;;;;;;46.50;17.35;;;;;;;4.40;49.52;102625.44;4982263;28;20045;-63
2021/11/16 01:08:52;;;;;;;50.22;16.90;;;;;;;4.04;50.08;102619.72;4983275;28;20031;-65
2021/11/16 01:11:17;;;;;;;45.30;15.98;;;;;;;4.07;50.02;102615.44;4981804;28;20507;-65
2021/11/16 01:13:43;;;;;;;56.45;16.70;;;;;;;4.13;50.13;102609.50;4984291;28;20096;-65
2021/11/16 01:16:10;;;;;;;44.40;15.57;;;;;;;3.88;50.46;102603.97;4983538;28;20490;-66
2021/11/16 01:18:36;;;;;;;46.42;17.73;;;;;;;3.94;50.68;102606.66;4998610;28;20502;-66
2021/11/16 01:21:03;;;;;;;39.85;16.80;;;;;;;4.17;49.64;102612.16;4984041;28;20050;-65
2021/11/16 01:23:28;;;;;;;47.85;16.00;;;;;;;4.35;49.85;102611.56;4982198;28;20125;-66
2021/11/16 01:25:55;;;;;;;47.70;15.70;;;;;;;4.19;49.69;102600.13;4983998;28;20117;-65
2021/11/16 01:28:27;;;;;;;44.42;14.88;;;;;;;4.18;49.93;102607.84;4982023;28;20038;-66
2021/11/16 01:30:55;;;;;;;43.63;15.10;;;;;;;3.99;50.08;102602.41;4984180;28;20461;-65
2021/11/16 01:33:27;;;;;;;44.38;15.00;;;;;;;4.15;49.79;102592.28;4983025;28;20521;-66
2021/11/16 01:35:54;;;;;;;50.05;16.10;;;;;;;3.94;50.10;102604.06;4984073;28;20226;-66
2021/11/16 01:38:22;;;;;;;40.40;12.73;;;;;;;3.89;49.93;102607.41;4982241;28;20092;-66
2021/11/16 01:40:48;;;;;;;48.50;16.48;;;;;;;3.76;50.31;102599.47;4999833;28;20030;-66
2021/11/16 01:43:15;;;;;;;51.97;17.00;;;;;;;3.83;50.21;102605.63;4982728;28;20064;-67
2021/11/16 01:45:42;;;;;;;49.67;14.80;;;;;;;3.83;50.58;102605.63;4984290;28;20038;-66
2021/11/16 01:48:09;;;;;;;45.55;14.90;;;;;;;4.00;50.14;102605.88;4980410;28;20061;-66
2021/11/16 01:50:36;;;;;;;45.35;16.55;;;;;;;4.07;49.57;102601.66;4998152;28;20125;-66
2021/11/16 01:53:02;;;;;;;45.88;15.55;;;;;;;4.07;49.79;102599.94;4982931;28;20513;-68
2021/11/16 01:55:27;;;;;;;42.95;15.40;;;;;;;4.09;50.06;102608.59;4983018;28;20026;-66
2021/11/16 01:57:54;;;;;;;51.28;15.43;;;;;;;4.22;49.60;102599.28;4983075;28;20549;-66
2021/11/16 02:00:33;;;;;;;48.42;17.48;;;;;;;4.17;49.69;102596.63;4983097;28;20029;-66
2021/11/16 02:02:59;;;;;;;41.65;15.43;;;;;;;4.05;50.14;102593.00;4982229;28;20038;-65
2021/11/16 02:05:38;;;;;;;53.30;15.70;;;;;;;4.29;49.65;102589.91;4984010;28;20038;-65
2021/11/16 02:08:04;;;;;;;44.95;16.65;;;;;;;4.37;49.73;102599.50;4995924;28;20502;-65
2021/11/16 02:10:29;;;;;;;51.15;18.40;;;;;;;4.25;49.60;102594.16;4995858;28;20048;-65
2021/11/16 02:12:55;;;;;;;51.70;16.52;;;;;;;4.14;49.92;102586.25;4982733;28;20038;-65
2021/11/16 02:15:20;;;;;;;43.40;15.57;;;;;;;4.30;49.61;102586.47;4998356;28;20026;-65
2021/11/16 02:17:48;;;;;;;52.15;17.13;;;;;;;4.13;49.96;102584.50;4981656;28;20399;-65
2021/11/16 02:20:16;;;;;;;40.75;17.13;;;;;;;3.99;50.16;102586.03;4984177;28;20050;-65
2021/11/16 02:22:42;;;;;;;42.92;15.40;;;;;;;4.02;50.50;102589.50;4982341;28;20112;-64
2021/11/16 02:25:08;;;;;;;54.75;18.48;;;;;;;4.15;49.88;102585.38;4982398;28;20064;-65
2021/11/16 02:27:33;;;;;;;52.40;16.42;;;;;;;4.12;49.77;102579.28;4981135;28;20038;-67
2021/11/16 02:29:59;;;;;;;43.63;16.33;;;;;;;4.15;49.86;102584.53;4983081;28;20644;-65
2021/11/16 02:32:25;;;;;;;43.63;17.40;;;;;;;4.09;50.01;102577.53;4983339;28;20039;-65
2021/11/16 02:34:51;;;;;;;51.13;15.55;;;;;;;3.94;50.54;102573.03;4982943;28;20053;-65
2021/11/16 02:37:16;;;;;;;44.50;17.77;;;;;;;4.23;49.93;102577.75;4983679;28;20348;-64
2021/11/16 02:39:42;;;;;;;49.95;16.58;;;;;;;4.11;50.12;102591.38;4980469;28;20049;-65
2021/11/16 02:42:09;;;;;;;56.42;18.67;;;;;;;3.99;50.09;102575.69;4998401;28;20105;-67
2021/11/16 02:44:34;;;;;;;45.50;15.98;;;;;;;4.28;49.35;102573.50;4983964;28;20093;-65
2021/11/16 02:47:00;;;;;;;40.78;14.55;;;;;;;4.37;49.59;102577.94;4996231;28;20543;-64
2021/11/16 02:49:25;;;;;;;43.35;16.02;;;;;;;4.22;50.00;102578.59;4983132;28;20558;-66
2021/11/16 02:51:51;;;;;;;41.15;14.95;;;;;;;4.24;49.49;102574.31;4997495;28;20499;-64
2021/11/16 02:54:20;;;;;;;43.58;14.73;;;;;;;4.25;49.45;102578.63;4986824;28;20038;-64
2021/11/16 02:56:47;;;;;;;43.50;16.52;;;;;;;4.32;49.40;102575.28;4992719;28;20038;-63
2021/11/16 02:59:14;;;;;;;38.80;16.23;;;;;;;4.28;49.19;102567.47;5009920;28;20085;-64
2021/11/16 03:01:41;;;;;;;39.85;16.73;;;;;;;4.27;49.54;102566.56;4983166;28;20084;-64
2021/11/16 03:04:06;;;;;;;40.28;14.63;;;;;;;4.36;49.51;102566.72;4989313;28;20104;-64
2021/11/16 03:06:32;;;;;;;47.72;15.30;;;;;;;4.44;49.27;102571.97;4986454;28;20093;-63
2021/11/16 03:08:58;;;;;;;41.20;15.00;;;;;;;4.47;48.90;102555.59;4986984;28;20109;-64
2021/11/16 03:11:25;;;;;;;47.05;15.57;;;;;;;4.36;48.91;102561.53;4987376;28;20030;-66
2021/11/16 03:13:50;;;;;;;40.47;14.80;;;;;;;4.33;49.00;102556.31;5002732;28;20042;-63
2021/11/16 03:16:18;;;;;;;45.78;15.65;;;;;;;4.39;48.88;102550.34;4987768;28;20366;-65
2021/11/16 03:18:46;;;;;;;44.83;16.52;;;;;;;4.36;48.67;102546.00;4986647;28;20088;-65
2021/11/16 03:21:12;;;;;;;43.30;14.95;;;;;;;4.38;48.97;102548.59;4987859;28;20038;-65
2021/11/16 03:23:40;;;;;;;39.45;13.93;;;;;;;4.36;48.97;102546.00;4986155;28;20073;-65
2021/11/16 03:26:06;;;;;;;37.15;14.45;;;;;;;4.47;48.83;102542.66;4987720;28;20092;-66
2021/11/16 03:28:34;;;;;;;42.63;15.40;;;;;;;4.26;49.40;102535.50;5001496;28;20049;-66
2021/11/16 03:31:09;;;;;;;35.53;13.25;;;;;;;4.11;49.15;102536.16;5002858;28;20034;-66
2021/11/16 03:33:36;;;;;;;36.88;13.82;;;;;;;4.02;49.13;102539.50;5000084;28;20061;-69
2021/11/16 03:36:03;;;;;;;34.78;12.63;;;;;;;4.20;48.56;102536.28;4986886;28;20101;-67
2021/11/16 03:38:29;;;;;;;36.88;14.10;;;;;;;4.29;48.28;102532.94;5000340;28;20069;-65
2021/11/16 03:40:56;;;;;;;37.63;13.50;;;;;;;4.40;48.31;102537.41;4988041;28;20129;-66
2021/11/16 03:43:23;;;;;;;32.83;13.85;;;;;;;4.23;48.54;102533.75;5000484;28;20038;-68
2021/11/16 03:45:50;;;;;;;37.78;14.63;;;;;;;4.48;48.20;102539.25;4986795;28;20030;-66
2021/11/16 03:48:16;;;;;;;34.30;14.02;;;;;;;4.48;47.99;102534.06;4992136;28;20084;-66
2021/11/16 03:50:43;;;;;;;37.50;14.63;;;;;;;4.50;48.16;102532.31;5001612;28;20045;-65
2021/11/16 03:53:10;;;;;;;31.92;13.55;;;;;;;4.51;47.98;102534.09;4999697;28;20410;-65
2021/11/16 03:55:38;;;;;;;37.63;13.77;;;;;;;4.48;47.85;102523.69;4985495;28;20104;-68
2021/11/16 03:58:04;;;;;;;37.88;13.05;;;;;;;4.40;48.02;102526.19;4984556;28;20100;-67
2021/11/16 04:00:42;;;;;;;40.55;14.65;;;;;;;4.26;48.29;102525.16;4986528;28;20039;-65
2021/11/16 04:03:09;;;;;;;34.05;13.55;;;;;;;4.37;48.26;102519.25;4983794;28;20038;-66
2021/11/16 04:05:35;;;;;;;33.53;14.52;;;;;;;4.41;47.35;102522.75;4986339;28;20113;-66
2021/11/16 04:08:01;;;;;;;36.47;14.32;;;;;;;4.40;47.97;102524.47;4983954;28;20357;-65
2021/11/16 04:10:26;;;;;;;32.92;13.50;;;;;;;4.48;47.96;102518.53;4985630;28;20030;-66
2021/11/16 04:12:53;;;;;;;40.33;15.60;;;;;;;4.57;48.05;102516.91;4985192;28;20439;-65
2021/11/16 04:15:22;;;;;;;33.72;14.57;;;;;;;4.58;47.70;102522.94;4983796;28;20125;-65
2021/11/16 04:17:52;;;;;;;37.08;14.77;;;;;;;4.43;47.75;102527.09;4985641;28;20038;-66
2021/11/16 04:20:38;;;;;;;34.35;12.60;;;;;;;4.40;47.86;102527.03;4985096;28;20142;-65
2021/11/16 04:23:06;;;;;;;42.10;13.68;;;;;;;4.46;47.70;102525.41;4983988;28;20113;-66
2021/11/16 04:25:33;;;;;;;38.50;13.30;;;;;;;4.51;47.59;102528.91;4984194;28;20074;-65
2021/11/16 04:28:00;;;;;;;37.67;15.13;;;;;;;4.55;47.61;102530.69;4984333;28;20034;-66
2021/11/16 04:30:28;;;;;;;40.58;14.43;;;;;;;4.56;47.74;102522.91;4986071;28;20045;-65
2021/11/16 04:32:54;;;;;;;36.83;13.95;;;;;;;4.45;47.75;102523.66;4999861;28;20039;-67
2021/11/16 04:35:20;;;;;;;35.15;14.18;;;;;;;4.51;47.68;102534.09;4984685;28;20038;-66
2021/11/16 04:37:48;;;;;;;43.83;14.90;;;;;;;4.51;47.74;102531.50;4985064;28;20034;-67
2021/11/16 04:40:17;;;;;;;35.35;13.65;;;;;;;4.47;47.25;102527.13;4984131;28;20041;-68
2021/11/16 04:42:43;;;;;;;40.78;14.88;;;;;;;4.54;47.50;102534.09;4985118;28;20038;-67
2021/11/16 04:45:12;;;;;;;36.88;15.50;;;;;;;4.46;47.83;102528.00;4983559;28;20863;-66
2021/11/16 04:48:02;;;;;;;32.28;14.63;;;;;;;4.49;47.30;102531.47;4984292;28;20578;-66
2021/11/16 04:50:33;;;;;;;34.33;13.02;;;;;;;4.48;47.59;102529.75;4984861;28;20280;-66
2021/11/16 05:03:51;;;;;;;36.85;13.95;;;;;;;4.43;47.46;102527.09;4982414;28;20449;-65
2021/11/16 05:06:17;;;;;;;34.70;13.40;;;;;;;4.36;47.89;102532.16;5000877;28;20477;-65
2021/11/16 05:08:45;;;;;;;37.22;13.40;;;;;;;4.43;47.74;102534.88;4997390;28;20027;-66
2021/11/16 05:11:11;;;;;;;33.20;12.68;;;;;;;4.39;47.71;102540.84;4984219;28;20068;-67
2021/11/16 05:13:39;;;;;;;31.83;12.20;;;;;;;4.42;47.41;102533.13;4982663;28;20049;-66
2021/11/16 05:16:06;;;;;;;32.50;13.80;;;;;;;4.19;47.87;102534.56;4984790;28;20403;-66
2021/11/16 05:18:32;;;;;;;33.10;13.10;;;;;;;4.23;47.70;102526.00;4983086;28;20474;-66
2021/11/16 05:20:57;;;;;;;28.80;11.88;;;;;;;4.17;47.68;102528.50;4984657;28;20078;-66
2021/11/16 05:23:23;;;;;;;33.97;11.70;;;;;;;4.17;47.93;102523.31;4983784;28;20040;-64
2021/11/16 05:25:53;;;;;;;30.55;11.93;;;;;;;4.39;47.82;102520.13;4985021;28;20490;-65
2021/11/16 05:28:19;;;;;;;27.02;11.75;;;;;;;4.53;47.42;102516.84;4982783;28;20077;-65
2021/11/16 05:30:46;;;;;;;35.53;14.13;;;;;;;4.49;47.48;102526.28;4985105;28;20037;-65
2021/11/16 05:33:11;;;;;;;33.53;13.68;;;;;;;4.49;47.00;102523.69;4983801;28;20045;-68
2021/11/16 05:35:37;;;;;;;34.22;13.15;;;;;;;4.45;47.57;102526.25;4999339;28;20054;-68
2021/11/16 05:38:02;;;;;;;29.33;13.52;;;;;;;4.57;47.31;102523.81;4999237;28;20389;-68
2021/11/16 05:40:28;;;;;;;34.40;13.35;;;;;;;4.57;46.93;102523.81;4997383;28;20046;-68
2021/11/16 05:42:54;;;;;;;30.08;12.30;;;;;;;4.49;47.26;102520.25;4983877;28;20041;-68
2021/11/16 05:45:19;;;;;;;30.73;13.10;;;;;;;4.48;47.19;102518.53;4983758;28;20057;-67
2021/11/16 05:47:46;;;;;;;35.60;12.75;;;;;;;4.62;46.75;102516.94;4984528;28;20034;-68
2021/11/16 05:50:13;;;;;;;34.47;12.40;;;;;;;4.65;46.88;102509.19;4984917;28;20030;-68
2021/11/16 05:52:40;;;;;;;34.47;13.75;;;;;;;4.61;46.51;102499.69;4983296;28;20038;-68
2021/11/16 05:55:08;;;;;;;34.15;12.65;;;;;;;4.61;46.87;102504.88;4984513;28;20106;-68
2021/11/16 05:57:35;;;;;;;34.88;13.82;;;;;;;4.53;46.82;102498.72;4998192;28;20053;-68
2021/11/16 06:00:00;;;;;;;31.05;13.07;;;;;;;4.58;46.96;102504.81;4984201;28;20462;-66
2021/11/16 06:02:26;;;;;;;35.97;13.55;;;;;;;4.51;47.00;102503.00;4983246;28;20046;-66
2021/11/16 06:04:51;;;;;;;32.08;14.30;;;;;;;4.46;46.70;102499.50;4983659;28;20042;-66
2021/11/16 06:07:17;;;;;;;33.92;13.50;;;;;;;4.43;46.99;102495.13;4983339;28;20038;-65
2021/11/16 06:09:45;;;;;;;38.75;13.43;;;;;;;4.45;47.61;102492.56;4984265;28;20450;-65
2021/11/16 06:12:11;;;;;;;33.10;13.65;;;;;;;4.53;46.83;102486.63;4982491;28;20519;-65
2021/11/16 06:14:38;;;;;;;29.17;12.40;;;;;;;4.52;47.26;102490.09;4982290;28;20081;-66
2021/11/16 06:17:04;;;;;;;41.08;15.43;;;;;;;4.20;47.86;102489.69;4983906;28;20049;-66
2021/11/16 06:19:35;;;;;;;33.20;13.07;;;;;;;4.58;47.59;102491.88;4983582;28;20038;-66
2021/11/16 06:22:02;;;;;;;31.90;13.02;;;;;;;4.58;47.08;102494.44;4999073;28;20042;-67
2021/11/16 06:24:27;;;;;;;34.70;12.70;;;;;;;4.62;46.99;102485.88;4982305;28;20045;-67
2021/11/16 06:26:53;;;;;;;34.72;14.38;;;;;;;4.43;47.49;102480.50;4998736;28;20109;-70
2021/11/16 06:29:18;;;;;;;30.00;12.43;;;;;;;4.40;47.24;102474.41;4984579;28;20018;-66
2021/11/16 06:31:44;;;;;;;29.13;13.88;;;;;;;4.59;46.79;102481.53;4984897;28;20041;-67
2021/11/16 06:34:10;;;;;;;32.60;12.63;;;;;;;4.57;46.66;102487.56;4984774;28;20671;-66
2021/11/16 06:36:38;;;;;;;29.02;13.00;;;;;;;4.59;46.81;102485.84;4999253;28;20117;-66
2021/11/16 06:39:13;;;;;;;36.55;14.10;;;;;;;4.62;46.78;102488.47;4988549;28;20514;-67
2021/11/16 06:41:42;;;;;;;29.08;11.43;;;;;;;4.50;46.97;102490.91;5003718;28;20038;-66
2021/11/16 06:44:10;;;;;;;33.20;13.68;;;;;;;4.64;46.66;102490.22;4989733;28;20057;-68
2021/11/16 06:46:36;;;;;;;34.85;12.80;;;;;;;4.69;47.04;102476.44;4986067;28;20042;-65
2021/11/16 06:49:04;;;;;;;30.08;11.63;;;;;;;4.71;46.94;102480.78;4985631;28;20486;-66
2021/11/16 06:51:36;;;;;;;30.65;12.98;;;;;;;4.69;46.64;102479.91;4988760;28;20414;-66
2021/11/16 06:54:03;;;;;;;35.38;12.82;;;;;;;4.63;46.90;102479.81;4987758;28;20046;-68
2021/11/16 06:56:29;;;;;;;29.38;11.95;;;;;;;4.61;46.92;102478.97;4988504;28;20351;-66
2021/11/16 06:58:54;;;;;;;40.45;14.63;;;;;;;4.58;46.92;102489.28;4987112;28;20038;-65
2021/11/16 07:01:20;;;;;;;29.15;12.60;;;;;;;4.53;47.17;102488.38;4985953;28;20038;-65
2021/11/16 07:03:49;;;;;;;30.80;13.23;;;;;;;4.48;47.36;102482.28;5001968;28;20654;-67
2021/11/16 07:06:16;;;;;;;28.90;12.73;;;;;;;4.66;46.69;102492.81;5004210;28;20406;-66
2021/11/16 07:08:42;;;;;;;34.83;12.90;;;;;;;4.71;46.61;102496.31;4987139;28;20112;-65
2021/11/16 07:11:12;;;;;;;33.13;13.30;;;;;;;4.73;46.80;102499.81;4988818;28;20045;-66
2021/11/16 07:13:53;;;;;;;31.63;12.88;;;;;;;4.75;46.49;102498.09;4986053;28;20443;-65
2021/11/16 07:16:19;;;;;;;34.20;14.13;;;;;;;4.68;46.70;102498.91;4998538;28;20034;-66
2021/11/16 07:18:52;;;;;;;34.63;11.95;;;;;;;4.69;46.38;102492.84;4990822;28;20399;-65
2021/11/16 07:21:22;;;;;;;38.63;13.88;;;;;;;4.61;47.05;102491.91;5000660;28;20030;-66
2021/11/16 07:24:02;;;;;;;30.02;13.43;;;;;;;4.41;47.28;102492.56;5018669;28;20037;-66
2021/11/16 07:26:27;;;;;;;30.98;13.05;;;;;;;4.57;46.57;102500.50;5002051;28;20038;-65
2021/11/16 07:28:53;;;;;;;26.98;13.00;;;;;;;4.59;46.62;102491.88;4990787;28;20037;-65
2021/11/16 07:31:21;;;;;;;36.90;15.73;;;;;;;4.52;46.60;102495.28;5001430;28;20042;-64
2021/11/16 07:33:48;;;;;;;34.13;12.80;;;;;;;4.53;46.68;102502.19;4984469;28;20042;-65
2021/11/16 07:36:16;;;;;;;32.55;13.70;;;;;;;4.50;46.77;102491.78;5001702;28;20030;-65
2021/11/16 07:38:51;;;;;;;32.25;12.98;;;;;;;4.48;46.62;102497.81;4984498;28;20038;-65
2021/11/16 07:41:24;;;;;;;34.20;12.20;;;;;;;4.48;46.83;102496.09;4985785;28;20037;-65
2021/11/16 07:43:51;;;;;;;32.10;13.02;;;;;;;4.52;46.73;102487.50;4987859;28;20043;-69
2021/11/16 07:46:17;;;;;;;30.90;12.40;;;;;;;4.68;46.81;102491.13;5002958;28;20042;-67
2021/11/16 07:48:43;;;;;;;33.10;12.68;;;;;;;4.72;46.72;102498.09;4999860;28;20034;-65
2021/11/16 07:51:12;;;;;;;32.70;12.80;;;;;;;4.64;47.05;102495.38;4986638;28;20057;-65
2021/11/16 07:53:51;;;;;;;35.40;14.38;;;;;;;4.60;46.80;102495.34;4988393;28;21198;-66
2021/11/16 07:56:21;;;;;;;32.53;13.27;;;;;;;4.39;47.11;102489.06;4986554;28;20080;-65
2021/11/16 07:58:48;;;;;;;28.92;11.30;;;;;;;4.37;47.22;102488.19;4988002;28;20038;-65
2021/11/16 08:01:21;;;;;;;33.70;15.13;;;;;;;4.54;46.65;102478.03;4986416;28;20062;-65
2021/11/16 08:03:50;;;;;;;30.83;12.98;;;;;;;4.54;46.72;102483.22;4973154;28;20046;-66
2021/11/16 08:06:39;;;;;;;36.15;13.13;;;;;;;4.47;46.90;102483.09;4989834;28;20031;-65
2021/11/16 08:09:57;;;;;;;31.23;12.18;;;;;;;4.64;46.94;102471.22;4985116;28;20101;-65
2021/11/16 08:14:44;;;;;;;32.03;14.30;;;;;;;4.56;46.98;102468.53;4997661;28;20092;-65
2021/11/16 08:17:10;;;;;;;32.58;13.43;;;;;;;4.58;46.92;102473.72;4996798;28;20034;-65
2021/11/16 08:19:38;;;;;;;33.63;13.25;;;;;;;4.54;47.19;102474.56;5010497;28;20046;-67
2021/11/16 08:22:09;;;;;;;33.08;14.30;;;;;;;4.51;47.22;102471.94;4988549;28;20328;-66
2021/11/16 08:24:38;;;;;;;36.15;15.02;;;;;;;4.46;47.47;102473.63;5002789;28;20042;-66
2021/11/16 08:27:17;;;;;;;34.10;12.25;;;;;;;4.60;46.68;102478.06;4986272;28;20057;-66
2021/11/16 08:29:49;;;;;;;26.90;13.43;;;;;;;4.60;46.82;102477.22;4984337;28;20049;-67
2021/11/16 08:32:22;;;;;;;36.33;13.63;;;;;;;4.67;46.87;102463.47;5000761;28;20479;-67
2021/11/16 08:34:54;;;;;;;35.88;13.70;;;;;;;4.66;47.00;102477.28;4987478;28;20030;-66
2021/11/16 08:37:22;;;;;;;40.47;16.00;;;;;;;4.66;46.70;102471.25;4984991;28;20483;-66
2021/11/16 08:39:57;;;;;;;30.08;12.80;;;;;;;4.67;47.12;102468.66;4987734;28;20030;-66
2021/11/16 08:42:23;;;;;;;33.08;13.30;;;;;;;4.73;47.25;102470.44;4982882;28;20160;-66
2021/11/16 08:44:54;;;;;;;31.73;14.23;;;;;;;4.76;46.56;102465.28;4986331;28;20140;-66
2021/11/16 08:47:26;;;;;;;32.13;14.00;;;;;;;4.71;46.57;102464.38;4983628;28;20038;-66
2021/11/16 08:49:51;;;;;;;31.00;12.88;;;;;;;4.71;46.66;102460.06;4985071;28;20026;-66
2021/11/16 08:52:17;;;;;;;29.35;12.63;;;;;;;4.78;46.40;102456.66;4980449;28;20457;-67
2021/11/16 08:55:03;;;;;;;36.22;13.13;;;;;;;4.71;46.43;102454.88;4974956;28;20479;-66
2021/11/16 08:57:31;;;;;;;31.92;12.77;;;;;;;4.69;46.49;102455.72;4996763;28;20035;-66
2021/11/16 08:59:58;;;;;;;29.15;13.32;;;;;;;4.70;46.84;102452.25;4981692;28;20046;-66
2021/11/16 09:02:26;;;;;;;37.10;14.85;;;;;;;4.73;46.90;102445.41;4983352;28;20223;-66
2021/11/16 09:04:52;;;;;;;39.40;13.13;;;;;;;4.79;47.02;102442.88;4983777;28;20030;-66
2021/11/16 09:07:30;;;;;;;27.27;12.32;;;;;;;4.83;47.14;102442.06;4980429;28;20049;-66
2021/11/16 09:09:59;;;;;;;34.83;15.50;;;;;;;4.68;46.85;102439.31;4995891;28;20038;-67
2021/11/16 09:12:39;;;;;;;36.38;14.65;;;;;;;4.68;47.01;102439.31;4984634;28;20157;-66
2021/11/16 09:15:06;;;;;;;30.20;12.68;;;;;;;4.55;47.06;102432.28;4983919;28;20288;-66
2021/11/16 09:17:32;;;;;;;34.17;13.35;;;;;;;4.53;46.93;102433.97;4983680;28;20050;-67
2021/11/16 09:20:21;;;;;;;32.17;13.05;;;;;;;4.37;47.19;102428.66;4985212;28;20545;-67
2021/11/16 09:22:48;;;;;;;34.13;12.95;;;;;;;4.63;46.89;102430.63;4985104;28;20394;-68
2021/11/16 09:25:26;;;;;;;29.77;12.05;;;;;;;4.69;47.03;102430.69;4986920;28;20042;-66
2021/11/16 09:28:03;;;;;;;31.95;13.18;;;;;;;4.60;47.17;102434.06;4981077;28;20136;-66
2021/11/16 09:30:34;;;;;;;36.67;14.07;;;;;;;4.59;47.42;102429.75;4984048;28;20411;-67
2021/11/16 09:33:22;;;;;;;33.08;11.95;;;;;;;4.63;47.16;102426.34;4981244;28;20039;-66
2021/11/16 09:35:58;;;;;;;31.08;12.95;;;;;;;4.76;46.87;102429.03;5004578;28;20101;-67
2021/11/16 09:38:49;;;;;;;38.15;14.43;;;;;;;4.80;46.81;102423.00;5000199;28;20073;-66
2021/11/16 09:41:21;;;;;;;34.47;13.48;;;;;;;4.68;47.14;102426.38;4983215;28;20041;-66
2021/11/16 09:43:56;;;;;;;35.25;14.27;;;;;;;4.50;47.41;102423.56;4986255;28;20763;-66
2021/11/16 09:46:21;;;;;;;35.47;13.82;;;;;;;4.78;46.77;102415.22;4983261;28;20037;-67
2021/11/16 09:48:56;;;;;;;31.25;14.40;;;;;;;4.79;46.90;102416.13;4998314;28;20080;-66
2021/11/16 09:51:22;;;;;;;34.58;13.93;;;;;;;4.82;46.80;102417.00;4981271;28;20042;-66
2021/11/16 09:54:01;;;;;;;29.92;12.15;;;;;;;4.87;46.59;102413.56;4980466;28;20125;-66
2021/11/16 09:56:26;;;;;;;30.35;12.57;;;;;;;4.80;46.33;102408.34;4981188;28;20049;-66
2021/11/16 09:58:52;;;;;;;27.95;13.57;;;;;;;4.80;46.31;102413.50;4979179;28;20364;-68
2021/11/16 10:01:24;;;;;;;30.48;13.02;;;;;;;4.70;46.95;102411.72;4981511;28;20042;-66
2021/11/16 10:04:07;;;;;;;30.75;13.25;;;;;;;4.43;47.63;102410.59;4981219;28;20646;-66
2021/11/16 10:06:33;;;;;;;35.20;13.30;;;;;;;4.47;47.42;102408.03;4980376;28;20034;-66
2021/11/16 10:08:59;;;;;;;28.75;12.85;;;;;;;4.52;47.20;102401.16;4979974;28;20053;-66
2021/11/16 10:11:25;;;;;;;33.63;13.15;;;;;;;4.50;47.50;102395.09;4986035;28;20037;-66
2021/11/16 10:13:51;;;;;;;28.80;12.43;;;;;;;4.45;47.18;102391.59;4983818;28;20038;-64
2021/11/16 10:16:16;;;;;;;34.65;13.35;;;;;;;4.35;47.30;102391.50;4983606;28;20122;-65
2021/11/16 10:18:42;;;;;;;39.65;13.88;;;;;;;4.34;47.58;102387.19;4983061;28;20053;-66
2021/11/16 10:21:08;;;;;;;31.85;13.18;;;;;;;4.49;47.30;102388.19;4983726;28;20037;-65
2021/11/16 10:23:36;;;;;;;36.67;12.88;;;;;;;4.46;47.09;102390.78;4981530;28;20038;-66
2021/11/16 10:26:04;;;;;;;39.05;13.70;;;;;;;4.50;46.92;102385.63;4997705;28;20049;-65
2021/11/16 10:28:34;;;;;;;36.67;12.75;;;;;;;4.50;47.06;102382.16;4984109;28;20092;-66
2021/11/16 10:31:01;;;;;;;33.80;14.02;;;;;;;4.32;47.57;102390.59;4984875;28;20620;-65
2021/11/16 10:33:52;;;;;;;31.73;13.90;;;;;;;4.38;47.28;102377.72;4981728;28;20046;-64
2021/11/16 10:36:20;;;;;;;41.00;15.98;;;;;;;4.44;47.37;102377.78;4983385;28;20153;-64
2021/11/16 10:38:53;;;;;;;30.15;12.95;;;;;;;4.54;47.29;102378.75;4986009;28;20058;-65
2021/11/16 10:41:23;;;;;;;33.88;13.07;;;;;;;4.56;47.37;102371.84;4986112;28;20062;-64
2021/11/16 10:43:56;;;;;;;29.02;12.65;;;;;;;4.50;47.52;102371.78;4996911;28;20046;-65
2021/11/16 10:46:28;;;;;;;31.23;12.88;;;;;;;4.49;47.57;102370.94;4984543;28;20042;-65
2021/11/16 10:48:56;;;;;;;37.08;14.10;;;;;;;4.05;48.63;102378.22;4988871;28;20034;-67
2021/11/16 10:51:31;;;;;;;34.90;13.65;;;;;;;4.28;47.67;102370.75;5001842;28;20038;-66
2021/11/16 10:53:57;;;;;;;31.73;13.52;;;;;;;4.35;47.79;102378.56;4991200;28;20406;-66
2021/11/16 10:56:29;;;;;;;29.77;13.35;;;;;;;4.37;47.96;102382.03;4993383;28;20041;-65
2021/11/16 10:59:06;;;;;;;31.55;12.20;;;;;;;4.32;47.54;102378.56;4985345;28;20455;-66
2021/11/16 11:01:31;;;;;;;33.05;13.20;;;;;;;4.40;47.28;102376.88;4999202;28;20077;-66
2021/11/16 11:03:58;;;;;;;28.48;13.00;;;;;;;4.47;47.70;102380.41;4985952;28;20034;-66
2021/11/16 11:06:26;;;;;;;32.45;11.70;;;;;;;4.58;47.16;102365.84;4983436;28;20061;-66
2021/11/16 11:08:54;;;;;;;25.10;11.43;;;;;;;4.36;47.45;102369.97;4984283;28;20039;-66
2021/11/16 11:11:32;;;;;;;36.15;15.55;;;;;;;4.52;47.15;102360.63;4999178;28;20034;-66
2021/11/16 11:14:00;;;;;;;34.60;14.43;;;;;;;4.64;47.33;102354.69;4985828;28;20138;-67
2021/11/16 11:16:27;;;;;;;34.53;13.60;;;;;;;4.64;47.29;102355.53;5000222;28;20034;-67
2021/11/16 11:18:53;;;;;;;38.22;14.77;;;;;;;4.58;47.24;102349.44;4984457;28;20186;-66
2021/11/16 11:21:27;;;;;;;30.73;13.02;;;;;;;4.58;46.94;102349.44;4986783;28;20043;-66
2021/11/16 11:23:56;;;;;;;33.33;14.57;;;;;;;4.58;47.30;102344.25;4986127;28;20351;-66
2021/11/16 11:29:17;;;;;;;33.38;14.27;;;;;;;4.54;47.18;102348.56;5004485;28;20058;-66
2021/11/16 11:31:46;;;;;;;38.53;14.45;;;;;;;4.63;47.17;102350.34;5006652;28;20907;-65
2021/11/16 11:34:12;;;;;;;36.53;15.30;;;;;;;4.56;47.17;102357.19;5010642;28;20046;-65
2021/11/16 11:36:39;;;;;;;34.67;14.82;;;;;;;4.72;47.05;102347.84;4988899;28;20364;-66
2021/11/16 11:39:17;;;;;;;34.53;14.02;;;;;;;4.63;47.17;102347.75;4987583;28;20038;-67
2021/11/16 11:41:53;;;;;;;38.00;16.40;;;;;;;4.74;47.61;102340.91;4994746;28;20037;-66